Time;durP1;ratioP1;P1;durP2;ratioP2;P2;SDS_P1;SDS_P2;PMS_P1;PMS_P2;Temp;Humidity;BMP_temperature;BMP_pressure;BME280_temperature;BME280_humidity;BME280_pressure;Samples;Min_cycle;Max_cycle;Signal;HPM_P1;HPM_P2
2023/11/26 00:00:14;;;;;;;;;;;;;;;19.31;67.04;98214.09;7389655;19;1615;-40
2023/11/26 00:02:42;;;;;;;;;;;;;;;19.28;67.28;98203.78;7390860;19;1524;-40
2023/11/26 00:05:13;;;;;;;;;;;;;;;19.22;67.45;98217.97;7377657;19;1540;-40
2023/11/26 00:07:42;;;;;;;;;;;;;;;19.18;67.41;98201.47;7390132;19;1521;-40
2023/11/26 00:10:10;;;;;;;;;;;;;;;19.13;67.22;98203.09;7389816;19;1389;-40
2023/11/26 00:12:39;;;;;;;;;;;;;;;19.19;67.35;98218.38;7389891;19;1514;-40
2023/11/26 00:15:08;;;;;;;;;;;;;;;19.20;67.25;98220.00;7388886;19;1846;-39
2023/11/26 00:17:37;;;;;;;;;;;;;;;19.24;67.34;98223.97;7390771;19;2028;-40
2023/11/26 00:20:06;;;;;;;;;;;;;;;19.24;67.14;98234.69;7388749;19;1549;-40
2023/11/26 00:22:37;;;;;;;;;;;;;;;19.23;67.11;98216.94;7387887;19;1430;-39
2023/11/26 00:25:06;;;;;;;;;;;;;;;19.16;67.36;98233.00;7389199;19;1504;-39
2023/11/26 00:27:35;;;;;;;;;;;;;;;19.18;67.34;98230.09;7387054;19;1362;-40
2023/11/26 00:30:04;;;;;;;;;;;;;;;19.25;67.24;98225.59;7388155;19;1577;-40
2023/11/26 00:32:32;;;;;;;;;;;;;;;19.20;67.05;98214.63;7396243;19;1553;-40
2023/11/26 00:35:01;;;;;;;;;;;;;;;19.15;67.51;98199.19;7395321;19;1863;-39
2023/11/26 00:37:29;;;;;;;;;;;;;;;19.15;67.38;98198.34;7396083;19;1152;-40
2023/11/26 00:40:00;;;;;;;;;;;;;;;19.15;67.23;98166.22;7396067;19;1560;-39
2023/11/26 00:42:28;;;;;;;;;;;;;;;19.08;67.56;98167.00;7393304;19;1586;-40
2023/11/26 00:44:57;;;;;;;;;;;;;;;19.03;67.73;98169.44;7391624;19;1407;-39
2023/11/26 00:47:25;;;;;;;;;;;;;;;19.05;67.52;98175.44;7398188;19;1168;-39
2023/11/26 15:00:46;;;;;;;;;;;;;;;20.47;62.16;99496.47;7217689;19;3057366;-41
2023/11/26 15:03:15;;;;;;;;;;;;;;;20.50;62.44;99509.56;7389183;19;2291;-40
2023/11/26 15:05:43;;;;;;;;;;;;;;;20.60;62.47;99522.81;7398998;19;1453;-40
2023/11/26 15:08:11;;;;;;;;;;;;;;;20.54;62.60;99518.94;7399855;19;1568;-40
2023/11/26 15:10:40;;;;;;;;;;;;;;;20.58;62.81;99508.69;7399303;19;1460;-40
2023/11/26 15:13:08;;;;;;;;;;;;;;;20.54;63.37;99539.59;7399536;19;1560;-40
2023/11/26 15:15:36;;;;;;;;;;;;;;;20.64;63.51;99524.13;7397984;19;1869;-40
2023/11/26 15:18:07;;;;;;;;;;;;;;;20.51;63.51;99540.78;7395212;19;1397;-41
2023/11/26 15:20:36;;;;;;;;;;;;;;;20.57;63.58;99537.41;7395668;19;2554;-41
2023/11/26 15:23:04;;;;;;;;;;;;;;;20.62;63.54;99543.09;7397939;19;1533;-40
2023/11/26 15:25:32;;;;;;;;;;;;;;;20.63;63.60;99542.09;7398098;19;1606;-41
2023/11/26 15:28:00;;;;;;;;;;;;;;;20.69;63.62;99555.84;7398396;19;1561;-40
2023/11/26 15:30:29;;;;;;;;;;;;;;;20.52;64.16;99560.44;7398316;19;1497;-40
2023/11/26 15:32:58;;;;;;;;;;;;;;;20.34;64.60;99571.41;7398036;19;1596;-40
2023/11/26 15:35:28;;;;;;;;;;;;;;;20.24;65.37;99567.06;7397025;19;1681;-40
2023/11/26 15:37:57;;;;;;;;;;;;;;;20.00;65.79;99569.84;7396134;19;1856;-41
2023/11/26 15:40:25;;;;;;;;;;;;;;;19.83;66.06;99566.31;7398616;19;1567;-40
2023/11/26 15:42:53;;;;;;;;;;;;;;;19.76;66.08;99581.44;7398890;19;1526;-41
2023/11/26 15:45:22;;;;;;;;;;;;;;;19.85;65.80;99550.91;7397741;19;1702;-40
2023/11/26 15:47:52;;;;;;;;;;;;;;;20.10;65.31;99597.31;7397840;19;1902;-40
2023/11/26 15:50:21;;;;;;;;;;;;;;;19.77;66.23;99599.19;7394025;19;1457;-40
2023/11/26 15:52:52;;;;;;;;;;;;;;;19.57;65.73;99596.81;7395519;19;1492;-40
2023/11/26 15:55:20;;;;;;;;;;;;;;;19.74;65.45;99602.22;7395970;19;1416;-40
2023/11/26 15:57:49;;;;;;;;;;;;;;;20.14;64.61;99609.38;7394255;19;1896;-40
2023/11/26 16:00:19;;;;;;;;;;;;;;;20.03;65.17;99612.41;7396019;19;1448;-40
2023/11/26 16:02:47;;;;;;;;;;;;;;;19.78;65.19;99617.81;7394899;19;1613;-41
2023/11/26 16:05:16;;;;;;;;;;;;;;;19.65;66.28;99615.59;7396468;19;1413;-40
2023/11/26 16:07:45;;;;;;;;;;;;;;;19.97;66.19;99624.66;7396247;19;1503;-40
2023/11/26 16:10:16;;;;;;;;;;;;;;;20.35;64.42;99633.00;7396294;19;1517;-40
2023/11/26 16:12:44;;;;;;;;;;;;;;;20.65;63.64;99630.56;7396194;19;1470;-40
2023/11/26 16:15:13;;;;;;;;;;;;;;;20.68;63.28;99649.03;7396831;19;1125;-43
2023/11/26 16:17:42;;;;;;;;;;;;;;;20.57;63.24;99644.84;7394786;19;1849;-43
2023/11/26 16:20:11;;;;;;;;;;;;;;;20.55;63.19;99646.88;7396290;19;1604;-43
2023/11/26 16:25:38;;;;;;;;;;;;;;;20.60;62.65;99663.31;7368875;19;1716;-64
2023/11/26 16:28:07;;;;;;;;;;;;;;;20.66;62.06;99662.63;7391541;19;1504;-61
2023/11/26 16:30:36;;;;;;;;;;;;;;;20.72;62.08;99671.84;7391638;19;1493;-57
2023/11/26 16:33:04;;;;;;;;;;;;;;;20.63;62.37;99689.84;7392645;19;1439;-61
2023/11/26 16:35:32;;;;;;;;;;;;;;;20.66;62.50;99686.78;7392297;19;1410;-60
2023/11/26 16:38:00;;;;;;;;;;;;;;;20.65;61.44;99698.56;7388676;19;1851;-60
2023/11/26 16:40:29;;;;;;;;;;;;;;;20.76;61.00;99699.19;7388684;19;1422;-62
2023/11/26 16:43:00;;;;;;;;;;;;;;;20.78;61.17;99698.00;7389275;19;1366;-60
2023/11/26 16:45:28;;;;;;;;;;;;;;;20.88;61.17;99711.25;7394534;19;1156;-62
2023/11/26 16:47:56;;;;;;;;;;;;;;;20.94;60.99;99707.84;7392444;19;1689;-60
2023/11/26 16:50:25;;;;;;;;;;;;;;;20.55;62.91;99718.53;7392647;19;1386;-60
2023/11/26 16:52:53;;;;;;;;;;;;;;;20.19;63.89;99725.13;7391863;19;1516;-60
2023/11/26 16:55:21;;;;;;;;;;;;;;;19.87;64.68;99731.31;7393379;19;1327;-60
2023/11/26 16:57:50;;;;;;;;;;;;;;;19.91;65.09;99758.66;7389954;19;1866;-57
2023/11/26 17:00:21;;;;;;;;;;;;;;;20.68;63.22;99755.66;7383784;19;1464;-57
2023/11/26 17:02:49;;;;;;;;;;;;;;;20.87;62.62;99760.63;7389804;19;1675;-58
2023/11/26 17:05:17;;;;;;;;;;;;;;;20.59;64.50;99773.59;7393210;19;1605;-58
2023/11/26 17:07:46;;;;;;;;;;;;;;;20.28;66.61;99782.34;7392752;19;1445;-60
2023/11/26 17:10:15;;;;;;;;;;;;;;;20.07;67.71;99780.13;7391238;19;1521;-58
2023/11/26 17:12:46;;;;;;;;;;;;;;;19.94;68.07;99790.53;7390769;19;1551;-61
2023/11/26 17:15:14;;;;;;;;;;;;;;;19.85;68.58;99798.53;7389092;19;1152;-60
2023/11/26 17:17:46;;;;;;;;;;;;;;;20.44;66.59;99794.91;7389549;19;1856;-61
2023/11/26 17:20:15;;;;;;;;;;;;;;;20.85;65.18;99790.38;7389322;19;1510;-66
2023/11/26 17:22:44;;;;;;;;;;;;;;;20.64;65.28;99788.22;7388093;19;1410;-58
2023/11/26 17:25:12;;;;;;;;;;;;;;;20.24;65.34;99806.00;7387508;19;1937;-58
2023/11/26 17:27:40;;;;;;;;;;;;;;;19.90;66.82;99800.75;7389461;19;1403;-59
2023/11/26 17:30:10;;;;;;;;;;;;;;;20.07;66.22;99812.34;7379446;19;1782;-60
2023/11/26 17:32:38;;;;;;;;;;;;;;;20.61;64.60;99809.19;7385762;19;1382;-59
2023/11/26 17:35:10;;;;;;;;;;;;;;;20.89;63.71;99817.75;7389028;19;1426;-57
2023/11/26 17:37:38;;;;;;;;;;;;;;;20.48;64.85;99820.44;7387426;19;1849;-60
2023/11/26 17:40:09;;;;;;;;;;;;;;;19.81;65.81;99783.78;7387127;19;1435;-58
2023/11/26 17:42:37;;;;;;;;;;;;;;;19.88;66.26;99842.19;7387176;19;1160;-58
2023/11/26 17:45:06;;;;;;;;;;;;;;;19.82;66.58;99841.81;7384167;19;1450;-59
2023/11/26 17:47:35;;;;;;;;;;;;;;;20.18;65.68;99841.56;7384230;19;1458;-59
2023/11/26 17:50:05;;;;;;;;;;;;;;;20.39;65.02;99869.75;7386372;19;1428;-60
2023/11/26 17:52:36;;;;;;;;;;;;;;;20.18;65.49;99852.28;7384595;19;1501;-58
2023/11/26 17:55:04;;;;;;;;;;;;;;;19.98;66.09;99861.66;7386799;19;1372;-58
2023/11/26 17:57:33;;;;;;;;;;;;;;;19.83;66.69;99870.31;7385659;19;1859;-59
2023/11/26 18:00:05;;;;;;;;;;;;;;;19.72;66.73;99862.56;7384369;19;1337;-58
2023/11/26 18:02:33;;;;;;;;;;;;;;;19.93;66.14;99877.38;7386030;19;1842;-59
2023/11/26 18:05:03;;;;;;;;;;;;;;;20.54;64.17;99867.25;7386892;19;1411;-60
2023/11/26 18:07:31;;;;;;;;;;;;;;;20.75;63.50;99878.38;7384897;19;1529;-60
2023/11/26 18:10:02;;;;;;;;;;;;;;;20.43;64.38;99892.59;7386374;19;1455;-59
2023/11/26 18:12:31;;;;;;;;;;;;;;;20.16;65.05;99874.94;7384475;19;1746;-65
2023/11/26 18:14:59;;;;;;;;;;;;;;;19.97;65.85;99884.94;7384450;19;1098;-58
2023/11/26 18:17:27;;;;;;;;;;;;;;;19.85;65.99;99872.84;7384784;19;1863;-60
2023/11/26 18:19:56;;;;;;;;;;;;;;;19.83;65.95;99883.72;7385444;19;1538;-59
2023/11/26 18:22:25;;;;;;;;;;;;;;;20.21;65.04;99886.00;7382287;19;1509;-59
2023/11/26 18:24:53;;;;;;;;;;;;;;;20.51;63.99;99884.53;7385322;19;1577;-58
2023/11/26 18:27:24;;;;;;;;;;;;;;;20.61;63.76;99901.38;7386547;19;1496;-59
2023/11/26 18:29:52;;;;;;;;;;;;;;;20.18;64.39;99911.34;7384925;19;1462;-60
2023/11/26 18:32:21;;;;;;;;;;;;;;;19.56;65.62;99874.06;7385238;19;1572;-65
2023/11/26 18:34:50;;;;;;;;;;;;;;;19.94;64.92;99913.97;7387210;19;1482;-60
2023/11/26 18:37:18;;;;;;;;;;;;;;;20.34;63.70;99904.34;7386367;19;1849;-60
2023/11/26 18:39:46;;;;;;;;;;;;;;;20.48;63.27;99898.31;7393048;19;1440;-60
2023/11/26 18:42:15;;;;;;;;;;;;;;;20.71;62.73;99908.41;7392492;19;1425;-61
2023/11/26 18:44:46;;;;;;;;;;;;;;;20.78;62.32;99898.69;7391737;19;1512;-61
2023/11/26 18:47:16;;;;;;;;;;;;;;;20.70;62.49;99912.13;7392285;19;1910;-61
2023/11/26 18:49:44;;;;;;;;;;;;;;;20.75;62.70;99912.44;7391926;19;1421;-63
2023/11/26 18:52:15;;;;;;;;;;;;;;;20.91;62.03;99917.84;7387063;19;1505;-62
2023/11/26 18:54:43;;;;;;;;;;;;;;;21.05;61.65;99927.06;7392687;19;1448;-61
2023/11/26 18:57:12;;;;;;;;;;;;;;;20.97;61.70;99927.91;7394833;19;1861;-62
2023/11/26 18:59:40;;;;;;;;;;;;;;;20.95;61.98;99940.69;7391823;19;1814;-60
2023/11/26 19:02:13;;;;;;;;;;;;;;;20.91;62.00;99919.66;7393885;19;1609;-62
2023/11/26 19:04:41;;;;;;;;;;;;;;;20.84;61.40;99943.69;7393624;19;1426;-58
2023/11/26 19:07:09;;;;;;;;;;;;;;;20.77;62.19;99956.09;7394229;19;1366;-60
2023/11/26 19:09:38;;;;;;;;;;;;;;;20.64;62.25;99944.00;7389335;19;1486;-59
2023/11/26 19:12:06;;;;;;;;;;;;;;;20.70;62.25;99965.88;7392695;19;1429;-60
2023/11/26 19:14:35;;;;;;;;;;;;;;;20.70;61.99;99955.94;7390611;19;1523;-60
2023/11/26 19:17:04;;;;;;;;;;;;;;;20.68;61.87;99949.91;7390258;19;1845;-61
2023/11/26 19:19:35;;;;;;;;;;;;;;;20.67;61.84;99975.06;7393965;19;1493;-61
2023/11/26 19:22:03;;;;;;;;;;;;;;;20.73;62.18;99968.19;7392755;19;1481;-61
2023/11/26 19:24:31;;;;;;;;;;;;;;;20.73;62.16;99958.31;7390157;19;2011;-59
2023/11/26 19:27:00;;;;;;;;;;;;;;;20.83;61.95;99974.25;7396456;19;1516;-59
2023/11/26 19:29:28;;;;;;;;;;;;;;;20.82;61.73;99962.66;7395638;19;1540;-58
2023/11/26 19:31:57;;;;;;;;;;;;;;;20.83;62.07;99974.25;7394944;19;1485;-59
2023/11/26 19:34:25;;;;;;;;;;;;;;;20.82;62.54;99976.09;7392307;19;1739;-58
2023/11/26 19:36:56;;;;;;;;;;;;;;;20.83;62.34;99980.50;7394224;19;1401;-57
2023/11/26 19:39:24;;;;;;;;;;;;;;;20.80;62.34;99977.28;7393383;19;1380;-57
2023/11/26 19:41:53;;;;;;;;;;;;;;;20.76;61.87;99987.53;7393085;19;1393;-57
2023/11/26 19:44:22;;;;;;;;;;;;;;;20.78;62.07;99987.38;7393206;19;1353;-59
2023/11/26 19:46:50;;;;;;;;;;;;;;;20.70;62.67;100001.63;7392642;19;1428;-57
2023/11/26 19:49:19;;;;;;;;;;;;;;;20.82;62.43;100002.16;7391420;19;1377;-56
2023/11/26 19:51:48;;;;;;;;;;;;;;;20.51;62.67;99969.66;7391361;19;1533;-56
2023/11/26 19:54:19;;;;;;;;;;;;;;;20.74;62.59;100018.25;7391250;19;1484;-56
2023/11/26 19:56:47;;;;;;;;;;;;;;;20.79;62.37;100021.28;7392568;19;1389;-56
2023/11/26 19:59:15;;;;;;;;;;;;;;;20.84;62.06;100019.78;7389696;19;1879;-56
2023/11/26 20:01:41;;;;;;;;;;;;;;;20.68;62.49;100051.16;7394102;19;1472;-62
2023/11/26 20:04:10;;;;;;;;;;;;;;;20.75;61.98;100028.84;7392802;19;1793;-59
2023/11/26 20:06:39;;;;;;;;;;;;;;;20.80;61.56;100033.72;7393202;19;1558;-60
2023/11/26 20:09:09;;;;;;;;;;;;;;;20.78;60.74;100046.47;7340228;19;12976;-60
2023/11/26 20:11:40;;;;;;;;;;;;;;;20.83;60.46;100038.75;7390005;19;1365;-60
2023/11/26 20:14:08;;;;;;;;;;;;;;;20.93;59.82;100031.41;7390620;19;1585;-60
2023/11/26 20:16:36;;;;;;;;;;;;;;;20.93;59.62;100038.59;7391157;19;1417;-58
2023/11/26 20:19:05;;;;;;;;;;;;;;;20.99;59.15;100046.00;7389721;19;1851;-58
2023/11/26 20:21:34;;;;;;;;;;;;;;;21.00;59.04;100023.50;7393063;19;1383;-59
2023/11/26 20:24:02;;;;;;;;;;;;;;;21.03;58.90;100029.38;7390905;19;1379;-59
2023/11/26 20:26:30;;;;;;;;;;;;;;;20.88;58.90;100033.72;7392604;19;1803;-60
2023/11/26 20:29:02;;;;;;;;;;;;;;;20.56;59.42;100031.78;7392456;19;1649;-60
2023/11/26 20:31:30;;;;;;;;;;;;;;;20.26;59.82;100079.66;7390709;19;1414;-59
2023/11/26 20:34:00;;;;;;;;;;;;;;;20.06;60.20;100033.44;7390270;19;1525;-59
2023/11/26 20:36:28;;;;;;;;;;;;;;;20.08;60.18;100039.50;7391203;19;1762;-57
2023/11/26 20:38:58;;;;;;;;;;;;;;;20.02;59.96;100040.97;7389753;19;1848;-57
2023/11/26 20:41:27;;;;;;;;;;;;;;;19.92;60.31;100048.28;7391613;19;1691;-57
2023/11/26 20:43:55;;;;;;;;;;;;;;;20.25;59.81;100059.19;7389858;19;1438;-57
2023/11/26 20:46:26;;;;;;;;;;;;;;;20.73;58.45;100051.50;7391013;19;1410;-58
2023/11/26 20:48:54;;;;;;;;;;;;;;;20.86;58.05;100054.56;7389978;19;1683;-58
2023/11/26 20:51:24;;;;;;;;;;;;;;;20.89;57.91;100066.81;7379763;19;2982;-59
2023/11/26 20:53:54;;;;;;;;;;;;;;;20.94;57.74;100057.25;7388689;19;1392;-58
2023/11/26 20:56:23;;;;;;;;;;;;;;;21.03;57.34;100071.56;7392148;19;1794;-65
2023/11/26 20:58:52;;;;;;;;;;;;;;;21.16;57.32;100079.13;7393806;19;1818;-64
2023/11/26 21:01:21;;;;;;;;;;;;;;;21.22;57.20;100067.69;7389682;19;1956;-62
2023/11/26 21:03:53;;;;;;;;;;;;;;;21.18;57.21;100067.19;7391787;19;1426;-62
2023/11/26 21:06:22;;;;;;;;;;;;;;;20.92;57.38;100083.44;7388770;19;1699;-60
2023/11/26 21:08:50;;;;;;;;;;;;;;;20.48;58.14;100075.56;7392564;19;1453;-57
2023/11/26 21:11:19;;;;;;;;;;;;;;;20.28;58.17;100085.72;7384744;19;1471;-58
2023/11/26 21:13:47;;;;;;;;;;;;;;;20.13;58.39;100085.47;7382156;19;1366;-58
2023/11/26 21:16:16;;;;;;;;;;;;;;;19.99;58.11;100084.22;6867444;19;9999696;-58
2023/11/26 21:18:44;;;;;;;;;;;;;;;19.95;58.41;100095.44;7374166;19;2006;-57
2023/11/26 21:21:16;;;;;;;;;;;;;;;19.93;58.02;100084.00;7378091;19;1813;-58
2023/11/26 21:23:44;;;;;;;;;;;;;;;19.85;58.17;100092.84;7374600;19;1439;-58
2023/11/26 21:26:13;;;;;;;;;;;;;;;19.79;58.16;100099.69;7380874;19;1541;-58
2023/11/26 21:28:41;;;;;;;;;;;;;;;19.80;57.81;100089.81;7381519;19;1565;-58
2023/11/26 21:31:10;;;;;;;;;;;;;;;19.75;57.77;100101.00;7382878;19;1327;-58
2023/11/26 21:33:38;;;;;;;;;;;;;;;19.70;57.99;100105.97;7382046;19;1688;-57
2023/11/26 21:36:07;;;;;;;;;;;;;;;19.68;57.68;100121.38;7382451;19;1419;-58
2023/11/26 21:38:38;;;;;;;;;;;;;;;19.68;57.79;100105.28;7381897;19;1870;-58
2023/11/26 21:41:08;;;;;;;;;;;;;;;19.65;57.84;100124.34;7383167;19;2043;-58
2023/11/26 21:43:36;;;;;;;;;;;;;;;19.64;57.67;100128.06;7383703;19;1569;-57
2023/11/26 21:46:04;;;;;;;;;;;;;;;19.61;57.92;100122.97;7382707;19;1373;-58
2023/11/26 21:48:33;;;;;;;;;;;;;;;19.57;57.75;100110.88;7381584;19;1450;-57
2023/11/26 21:51:01;;;;;;;;;;;;;;;19.53;57.83;100131.81;7383492;19;1359;-58
2023/11/26 21:53:29;;;;;;;;;;;;;;;19.47;57.79;100143.97;7383277;19;1418;-59
2023/11/26 21:56:00;;;;;;;;;;;;;;;19.45;57.91;100135.25;7381347;19;1509;-57
2023/11/26 21:58:29;;;;;;;;;;;;;;;19.44;58.12;100135.44;7381763;19;1891;-58
2023/11/26 22:00:57;;;;;;;;;;;;;;;19.41;58.26;100136.56;7382976;19;1359;-58
2023/11/26 22:03:25;;;;;;;;;;;;;;;19.38;58.04;100131.50;7383644;19;1331;-58
2023/11/26 22:05:54;;;;;;;;;;;;;;;19.38;58.06;100155.66;7382286;19;1395;-58
2023/11/26 22:08:22;;;;;;;;;;;;;;;19.35;58.20;100147.91;7381023;19;1511;-57
2023/11/26 22:10:52;;;;;;;;;;;;;;;19.34;57.94;100154.25;7383482;19;1402;-57
2023/11/26 22:13:22;;;;;;;;;;;;;;;19.33;58.16;100152.56;7390918;19;1661;-58
2023/11/26 22:15:51;;;;;;;;;;;;;;;19.37;58.19;100170.03;7386123;19;1711;-58
2023/11/26 22:18:19;;;;;;;;;;;;;;;19.36;58.30;100170.19;7388004;19;1866;-57
2023/11/26 22:20:48;;;;;;;;;;;;;;;19.33;57.99;100176.69;7390266;19;1436;-57
2023/11/26 22:23:16;;;;;;;;;;;;;;;19.30;57.92;100173.47;7391094;19;1583;-58
2023/11/26 22:25:45;;;;;;;;;;;;;;;19.27;58.19;100174.63;7387450;19;1390;-57
2023/11/26 22:28:13;;;;;;;;;;;;;;;19.26;57.94;100189.03;7386289;19;1712;-58
2023/11/26 22:30:44;;;;;;;;;;;;;;;19.25;57.70;100190.84;7389384;19;1407;-58
2023/11/26 22:33:12;;;;;;;;;;;;;;;19.20;57.83;100192.28;7388918;19;1419;-58
2023/11/26 22:35:40;;;;;;;;;;;;;;;19.20;57.82;100195.84;7390287;19;1445;-57
2023/11/26 22:38:09;;;;;;;;;;;;;;;19.08;57.65;100180.97;7388799;19;1844;-57
2023/11/26 22:40:37;;;;;;;;;;;;;;;19.17;57.55;100211.38;7389753;19;1543;-58
2023/11/26 22:43:05;;;;;;;;;;;;;;;19.17;57.72;100211.38;7389333;19;1449;-55
2023/11/26 22:45:34;;;;;;;;;;;;;;;19.15;57.49;100213.34;7388887;19;1342;-58
2023/11/26 22:48:05;;;;;;;;;;;;;;;19.16;57.42;100212.34;7390157;19;1790;-57
2023/11/26 22:50:33;;;;;;;;;;;;;;;19.15;57.47;100205.31;7389704;19;1552;-57
2023/11/26 22:53:01;;;;;;;;;;;;;;;19.22;57.16;100220.66;7389284;19;1549;-57
2023/11/26 22:55:29;;;;;;;;;;;;;;;19.21;57.10;100223.47;7389608;19;1386;-58
2023/11/26 22:57:58;;;;;;;;;;;;;;;19.19;57.15;100218.25;7388174;19;1235;-57
2023/11/26 23:00:27;;;;;;;;;;;;;;;19.18;57.01;100213.03;7387414;19;1855;-58
2023/11/26 23:02:58;;;;;;;;;;;;;;;19.17;57.04;100228.28;7389267;19;1411;-58
2023/11/26 23:05:29;;;;;;;;;;;;;;;19.11;57.28;100236.09;7388051;19;1520;-58
2023/11/26 23:07:58;;;;;;;;;;;;;;;19.11;57.44;100228.06;7388867;19;1434;-58
2023/11/26 23:10:26;;;;;;;;;;;;;;;19.09;57.37;100238.91;7388806;19;1453;-58
2023/11/26 23:12:54;;;;;;;;;;;;;;;19.04;57.40;100242.06;7388981;19;1335;-58
2023/11/26 23:15:23;;;;;;;;;;;;;;;19.05;57.09;100241.03;7388489;19;1332;-58
2023/11/26 23:17:51;;;;;;;;;;;;;;;19.03;57.38;100248.38;7384719;19;1483;-58
2023/11/26 23:20:20;;;;;;;;;;;;;;;19.04;57.09;100257.28;7386544;19;1852;-56
2023/11/26 23:22:51;;;;;;;;;;;;;;;19.04;57.20;100257.28;7388673;19;1445;-58
2023/11/26 23:25:19;;;;;;;;;;;;;;;19.02;57.36;100257.44;7393022;19;1482;-58
2023/11/26 23:27:48;;;;;;;;;;;;;;;19.05;57.16;100256.28;7395225;19;1551;-57
2023/11/26 23:30:16;;;;;;;;;;;;;;;19.02;56.99;100273.50;7395832;19;1485;-57
2023/11/26 23:32:45;;;;;;;;;;;;;;;19.01;57.10;100269.13;7396095;19;1441;-57
2023/11/26 23:35:13;;;;;;;;;;;;;;;19.01;57.11;100271.81;7395497;19;1461;-58
2023/11/26 23:37:41;;;;;;;;;;;;;;;18.98;57.07;100274.81;7394845;19;1462;-57
2023/11/26 23:40:13;;;;;;;;;;;;;;;18.98;57.17;100280.16;7394513;19;1873;-58
2023/11/26 23:42:41;;;;;;;;;;;;;;;18.98;57.08;100276.63;7394977;19;1419;-58
2023/11/26 23:45:10;;;;;;;;;;;;;;;18.95;57.11;100288.47;7394426;19;1900;-58
2023/11/26 23:47:38;;;;;;;;;;;;;;;18.93;57.13;100279.75;7393177;19;1806;-58
2023/11/26 23:50:07;;;;;;;;;;;;;;;18.93;56.99;100290.47;7393791;19;1491;-58
2023/11/26 23:52:36;;;;;;;;;;;;;;;18.92;56.98;100288.78;7395957;19;1473;-57
2023/11/26 23:55:05;;;;;;;;;;;;;;;18.92;56.82;100299.50;7394970;19;1579;-58
2023/11/26 23:57:36;;;;;;;;;;;;;;;18.93;57.01;100303.03;7393857;19;1224;-58
